Time;durP1;ratioP1;P1;durP2;ratioP2;P2;SDS_P1;SDS_P2;PMS_P1;PMS_P2;Temp;Humidity;BMP_temperature;BMP_pressure;BME280_temperature;BME280_humidity;BME280_pressure;Samples;Min_cycle;Max_cycle;Signal;HPM_P1;HPM_P2
2023/01/13 00:03:21;;;;;;;1.00;0.60;;;;;;;;;;8252862;28;20092;-73
2023/01/13 00:07:21;;;;;;;0.70;0.70;;;;;;;;;;8253909;28;20030;-73
2023/01/13 00:11:22;;;;;;;1.08;0.70;;;;;;;;;;8256391;28;20029;-74
2023/01/13 00:15:22;;;;;;;2.33;0.70;;;;;;;;;;8259629;28;20824;-74
2023/01/13 00:19:22;;;;;;;1.23;0.70;;;;;;;;;;8257343;28;20029;-73
2023/01/13 00:23:23;;;;;;;0.80;0.60;;;;;;;;;;8258768;28;20037;-74
2023/01/13 00:27:24;;;;;;;2.28;0.93;;;;;;;;;;8256675;28;20116;-74
2023/01/13 00:31:25;;;;;;;0.93;0.70;;;;;;;;;;8236245;28;20851;-74
2023/01/13 00:35:25;;;;;;;0.88;0.70;;;;;;;;;;8241197;28;20196;-73
2023/01/13 00:39:25;;;;;;;0.77;0.73;;;;;;;;;;8256703;28;20097;-74
2023/01/13 00:43:26;;;;;;;1.63;0.90;;;;;;;;;;8257936;28;20644;-74
2023/01/13 00:47:27;;;;;;;0.75;0.75;;;;;;;;;;8255380;28;20161;-73
2023/01/13 00:51:27;;;;;;;2.38;0.70;;;;;;;;;;8257808;28;20105;-74
2023/01/13 00:55:29;;;;;;;2.75;1.08;;;;;;;;;;8258672;28;20082;-73
2023/01/13 00:59:29;;;;;;;1.83;0.77;;;;;;;;;;8255863;28;20124;-74
2023/01/13 01:03:29;;;;;;;1.52;0.60;;;;;;;;;;8256480;28;20117;-73
2023/01/13 01:07:30;;;;;;;1.38;0.70;;;;;;;;;;8259104;28;20475;-74
2023/01/13 01:11:30;;;;;;;1.10;0.68;;;;;;;;;;8257992;28;20853;-74
2023/01/13 01:15:31;;;;;;;0.98;0.60;;;;;;;;;;8253198;28;20065;-74
2023/01/13 01:19:31;;;;;;;0.88;0.60;;;;;;;;;;8254614;28;20030;-74
2023/01/13 01:23:31;;;;;;;0.82;0.52;;;;;;;;;;8256206;28;20426;-74
2023/01/13 01:27:32;;;;;;;1.00;0.50;;;;;;;;;;8250586;28;20094;-74
2023/01/13 01:31:32;;;;;;;0.50;0.50;;;;;;;;;;8251469;28;20048;-74
2023/01/13 01:35:32;;;;;;;0.88;0.77;;;;;;;;;;8232917;28;20479;-74
2023/01/13 01:39:33;;;;;;;0.50;0.50;;;;;;;;;;8248709;28;20566;-74
2023/01/13 01:44:01;;;;;;;0.57;0.50;;;;;;;;;;8252131;28;20030;-73
2023/01/13 01:48:02;;;;;;;0.50;0.50;;;;;;;;;;8250984;28;20038;-74
2023/01/13 01:52:04;;;;;;;0.50;0.50;;;;;;;;;;8253408;28;20573;-74
2023/01/13 01:56:06;;;;;;;0.47;0.47;;;;;;;;;;8253798;28;20018;-74
2023/01/13 02:00:08;;;;;;;0.50;0.50;;;;;;;;;;8252050;28;20091;-73
2023/01/13 02:04:18;;;;;;;1.27;0.60;;;;;;;;;;8233327;28;20025;-73
2023/01/13 02:08:19;;;;;;;1.05;0.60;;;;;;;;;;8227373;28;20709;-73
2023/01/13 02:12:28;;;;;;;1.00;0.70;;;;;;;;;;8250026;28;20026;-74
2023/01/13 02:16:28;;;;;;;0.65;0.60;;;;;;;;;;8251533;28;20068;-73
2023/01/13 02:20:46;;;;;;;1.52;0.77;;;;;;;;;;8251035;28;20022;-74
2023/01/13 02:24:58;;;;;;;0.47;0.47;;;;;;;;;;8253197;28;20100;-74
2023/01/13 02:33:33;;;;;;;2.03;0.60;;;;;;;;;;8250924;28;20107;-74
2023/01/13 02:37:35;;;;;;;0.60;0.60;;;;;;;;;;8250779;28;20018;-74
2023/01/13 02:46:03;;;;;;;0.70;0.70;;;;;;;;;;8252276;28;20153;-74
2023/01/13 02:50:06;;;;;;;1.00;0.70;;;;;;;;;;8250143;28;20060;-74
2023/01/13 02:54:14;;;;;;;1.95;0.70;;;;;;;;;;8236200;28;20061;-74
2023/01/13 02:58:16;;;;;;;1.20;0.68;;;;;;;;;;8244624;28;20068;-73
2023/01/13 03:02:18;;;;;;;0.60;0.60;;;;;;;;;;8240498;28;20044;-74
2023/01/13 03:06:51;;;;;;;0.60;0.60;;;;;;;;;;8253705;28;20026;-73
2023/01/13 03:11:10;;;;;;;0.70;0.70;;;;;;;;;;8200901;28;20052;-73
2023/01/13 03:15:16;;;;;;;0.60;0.60;;;;;;;;;;8251940;28;20964;-74
2023/01/13 03:19:16;;;;;;;0.60;0.60;;;;;;;;;;8252728;28;20052;-74
2023/01/13 03:23:30;;;;;;;0.60;0.60;;;;;;;;;;8252003;28;20022;-73
2023/01/13 03:27:34;;;;;;;0.60;0.60;;;;;;;;;;8253584;28;20140;-74
2023/01/13 03:31:38;;;;;;;0.52;0.50;;;;;;;;;;8251411;28;20041;-73
2023/01/13 03:35:40;;;;;;;0.50;0.50;;;;;;;;;;8254278;28;20083;-74
2023/01/13 03:39:43;;;;;;;0.50;0.50;;;;;;;;;;8253669;28;20037;-74
2023/01/13 03:48:09;;;;;;;0.47;0.40;;;;;;;;;;8257394;28;20048;-73
2023/01/13 03:52:12;;;;;;;0.50;0.50;;;;;;;;;;8242462;28;20119;-73
2023/01/13 03:56:16;;;;;;;1.10;0.60;;;;;;;;;;8258813;28;21033;-73
2023/01/13 04:00:17;;;;;;;0.60;0.60;;;;;;;;;;8258518;28;20046;-73
2023/01/13 04:04:23;;;;;;;0.50;0.50;;;;;;;;;;8258841;28;20029;-74
2023/01/13 04:08:24;;;;;;;0.40;0.40;;;;;;;;;;8257650;28;20464;-73
2023/01/13 04:16:56;;;;;;;0.57;0.40;;;;;;;;;;8259779;28;20571;-73
2023/01/13 04:20:57;;;;;;;0.83;0.60;;;;;;;;;;8258206;28;20463;-73
2023/01/13 04:24:57;;;;;;;0.60;0.47;;;;;;;;;;8259212;28;20308;-74
2023/01/13 04:28:57;;;;;;;0.80;0.50;;;;;;;;;;8244252;28;20972;-74
2023/01/13 04:32:58;;;;;;;1.27;0.50;;;;;;;;;;8257776;28;20038;-74
2023/01/13 04:36:58;;;;;;;0.50;0.50;;;;;;;;;;8259915;28;20022;-73
2023/01/13 04:40:58;;;;;;;1.70;0.60;;;;;;;;;;8239380;28;21114;-73
2023/01/13 04:44:58;;;;;;;0.55;0.50;;;;;;;;;;8259228;28;20137;-73
2023/01/13 04:48:58;;;;;;;0.82;0.57;;;;;;;;;;8256467;28;20744;-73
2023/01/13 04:53:00;;;;;;;0.82;0.50;;;;;;;;;;8256398;28;20160;-73
2023/01/13 04:57:00;;;;;;;0.73;0.45;;;;;;;;;;8242818;28;20030;-73
2023/01/13 05:01:00;;;;;;;0.47;0.40;;;;;;;;;;8255667;28;20805;-74
2023/01/13 05:05:00;;;;;;;0.45;0.45;;;;;;;;;;8239117;28;20688;-73
2023/01/13 05:09:00;;;;;;;0.60;0.60;;;;;;;;;;8257723;28;20022;-73
2023/01/13 05:17:21;;;;;;;2.40;1.08;;;;;;;;;;8256408;28;20977;-74
2023/01/13 05:25:42;;;;;;;0.98;0.65;;;;;;;;;;8256234;28;20394;-74
2023/01/13 05:29:42;;;;;;;0.40;0.40;;;;;;;;;;8256168;28;20072;-73
2023/01/13 05:33:42;;;;;;;0.55;0.55;;;;;;;;;;8255869;28;20038;-74
2023/01/13 05:37:43;;;;;;;0.77;0.50;;;;;;;;;;8256566;28;20069;-74
2023/01/13 05:46:02;;;;;;;0.95;0.70;;;;;;;;;;8255995;28;20097;-74
2023/01/13 05:50:03;;;;;;;0.40;0.40;;;;;;;;;;8250356;28;20026;-74
2023/01/13 05:54:03;;;;;;;1.60;0.90;;;;;;;;;;8254291;28;20072;-75
2023/01/13 05:58:03;;;;;;;1.83;1.48;;;;;;;;;;8253277;28;20026;-74
2023/01/13 06:02:03;;;;;;;2.72;1.20;;;;;;;;;;8242473;28;20041;-75
2023/01/13 06:06:04;;;;;;;1.15;0.90;;;;;;;;;;8254420;28;20095;-75
2023/01/13 06:10:04;;;;;;;0.50;0.50;;;;;;;;;;8255993;28;20053;-75
2023/01/13 06:14:04;;;;;;;2.45;1.17;;;;;;;;;;8253554;28;20022;-75
2023/01/13 06:18:04;;;;;;;0.93;0.77;;;;;;;;;;8252851;28;20058;-74
2023/01/13 06:22:09;;;;;;;0.57;0.57;;;;;;;;;;8254184;28;20152;-75
2023/01/13 06:26:14;;;;;;;3.17;1.80;;;;;;;;;;8254170;28;21770;-75
2023/01/13 06:30:14;;;;;;;5.03;2.10;;;;;;;;;;8252492;28;20036;-75
2023/01/13 06:34:15;;;;;;;2.70;1.10;;;;;;;;;;8254855;28;20022;-75
2023/01/13 06:38:16;;;;;;;2.83;1.10;;;;;;;;;;8253918;28;20036;-75
2023/01/13 06:46:35;;;;;;;1.98;1.00;;;;;;;;;;8254821;28;20978;-75
2023/01/13 06:50:35;;;;;;;0.55;0.52;;;;;;;;;;8252811;28;20129;-75
2023/01/13 06:54:36;;;;;;;2.23;0.73;;;;;;;;;;8250984;28;20197;-75
2023/01/13 06:58:36;;;;;;;2.47;0.70;;;;;;;;;;8252743;28;20256;-75
2023/01/13 07:02:36;;;;;;;2.40;0.60;;;;;;;;;;8250048;28;20096;-75
2023/01/13 07:06:36;;;;;;;1.60;0.70;;;;;;;;;;8253786;28;20030;-74
2023/01/13 07:10:37;;;;;;;2.28;0.85;;;;;;;;;;8252081;28;20088;-74
2023/01/13 07:18:56;;;;;;;3.13;0.60;;;;;;;;;;8251247;28;20153;-74
2023/01/13 07:22:56;;;;;;;1.98;0.63;;;;;;;;;;8252949;28;20061;-74
2023/01/13 07:26:57;;;;;;;1.23;0.50;;;;;;;;;;8251616;28;20064;-74
2023/01/13 07:30:57;;;;;;;0.90;0.60;;;;;;;;;;8251142;28;20399;-73
2023/01/13 07:35:03;;;;;;;3.00;0.73;;;;;;;;;;8251837;28;20033;-73
2023/01/13 07:39:03;;;;;;;1.70;0.60;;;;;;;;;;8254517;28;20030;-73
2023/01/13 07:47:23;;;;;;;1.30;0.60;;;;;;;;;;8251299;28;20103;-73
2023/01/13 07:51:23;;;;;;;1.65;0.70;;;;;;;;;;8252855;28;20065;-73
2023/01/13 07:55:23;;;;;;;2.25;0.70;;;;;;;;;;8254431;28;20030;-73
2023/01/13 07:59:23;;;;;;;2.40;0.63;;;;;;;;;;8251175;28;20034;-73
2023/01/13 08:03:23;;;;;;;1.20;0.60;;;;;;;;;;8252469;28;20030;-73
2023/01/13 08:07:24;;;;;;;3.13;0.80;;;;;;;;;;8253279;28;20022;-73
2023/01/13 08:11:24;;;;;;;2.57;0.90;;;;;;;;;;8234412;28;20037;-73
2023/01/13 08:15:24;;;;;;;4.65;0.75;;;;;;;;;;8253590;28;20384;-73
2023/01/13 08:19:24;;;;;;;2.88;0.90;;;;;;;;;;8250873;28;20477;-73
2023/01/13 08:23:24;;;;;;;5.10;0.60;;;;;;;;;;8254732;28;20022;-73
2023/01/13 08:27:25;;;;;;;2.40;0.93;;;;;;;;;;8252496;28;21015;-73
2023/01/13 08:31:25;;;;;;;2.10;0.70;;;;;;;;;;8254966;28;20124;-73
2023/01/13 08:35:25;;;;;;;5.10;0.90;;;;;;;;;;8258289;28;20025;-73
2023/01/13 08:39:25;;;;;;;4.20;0.70;;;;;;;;;;8240850;28;20681;-74
2023/01/13 08:43:26;;;;;;;4.03;0.80;;;;;;;;;;8259308;28;20034;-73
2023/01/13 08:47:27;;;;;;;2.92;0.90;;;;;;;;;;8257969;28;20038;-73
2023/01/13 08:51:27;;;;;;;1.52;0.77;;;;;;;;;;8258564;28;20030;-73
2023/01/13 08:55:27;;;;;;;2.58;0.80;;;;;;;;;;8257527;28;20029;-74
2023/01/13 08:59:27;;;;;;;4.78;1.10;;;;;;;;;;8246104;28;21074;-73
2023/01/13 09:03:27;;;;;;;4.15;0.95;;;;;;;;;;8256593;28;20034;-73
2023/01/13 09:07:28;;;;;;;2.45;0.90;;;;;;;;;;8258193;28;20109;-74
2023/01/13 09:15:51;;;;;;;3.58;1.38;;;;;;;;;;8258060;28;20044;-74
2023/01/13 09:19:51;;;;;;;7.15;1.20;;;;;;;;;;8256705;28;20105;-73
2023/01/13 09:23:51;;;;;;;6.95;1.17;;;;;;;;;;8257297;28;20638;-73
2023/01/13 09:27:51;;;;;;;5.10;1.60;;;;;;;;;;8238233;28;20103;-74
2023/01/13 09:31:52;;;;;;;7.93;1.50;;;;;;;;;;8257276;28;20129;-74
2023/01/13 09:35:56;;;;;;;7.75;1.85;;;;;;;;;;8238096;28;20505;-73
2023/01/13 09:39:56;;;;;;;7.43;1.15;;;;;;;;;;8245130;28;20022;-73
2023/01/13 09:43:58;;;;;;;7.68;1.70;;;;;;;;;;8237820;28;20145;-73
2023/01/13 09:48:05;;;;;;;4.43;1.10;;;;;;;;;;8254413;28;20078;-73
2023/01/13 09:52:13;;;;;;;4.25;1.02;;;;;;;;;;8257088;28;20030;-73
2023/01/13 09:56:14;;;;;;;9.02;1.25;;;;;;;;;;8256635;28;20026;-73
2023/01/13 10:00:21;;;;;;;5.73;1.30;;;;;;;;;;8255944;28;20113;-73
2023/01/13 10:04:21;;;;;;;3.55;1.05;;;;;;;;;;8254842;28;20361;-73
2023/01/13 10:08:26;;;;;;;7.53;1.30;;;;;;;;;;8253862;28;20107;-73
2023/01/13 10:16:51;;;;;;;7.18;1.20;;;;;;;;;;8255560;28;20212;-73
2023/01/13 10:20:51;;;;;;;;;;;;;;;;;;8254106;28;20022;-74
2023/01/13 10:24:59;;;;;;;5.22;1.63;;;;;;;;;;8251348;28;20732;-73
2023/01/13 10:28:59;;;;;;;8.88;1.58;;;;;;;;;;8232434;28;20030;-73
2023/01/13 10:33:00;;;;;;;9.65;1.52;;;;;;;;;;8254401;28;20537;-73
2023/01/13 10:37:02;;;;;;;7.43;1.95;;;;;;;;;;8254378;28;20022;-73
2023/01/13 10:41:29;;;;;;;9.27;1.60;;;;;;;;;;8252216;28;20049;-73
2023/01/13 10:45:29;;;;;;;5.80;1.50;;;;;;;;;;8250717;28;20056;-73
2023/01/13 10:49:31;;;;;;;4.15;1.33;;;;;;;;;;8234869;28;20076;-72
2023/01/13 10:53:43;;;;;;;11.02;1.80;;;;;;;;;;8252656;28;20018;-72
2023/01/13 10:57:43;;;;;;;10.73;1.80;;;;;;;;;;8232008;28;20025;-73
2023/01/13 11:02:03;;;;;;;7.32;1.58;;;;;;;;;;8227656;28;20034;-74
2023/01/13 11:06:03;;;;;;;6.15;1.67;;;;;;;;;;8253380;28;20037;-73
2023/01/13 11:10:03;;;;;;;5.85;1.33;;;;;;;;;;8241305;28;20021;-73
2023/01/13 11:18:39;;;;;;;8.68;1.63;;;;;;;;;;8246541;28;20573;-73
2023/01/13 11:22:43;;;;;;;9.82;1.60;;;;;;;;;;8249805;28;20034;-73
2023/01/13 11:26:49;;;;;;;7.25;1.60;;;;;;;;;;8251276;28;20045;-73
2023/01/13 11:30:54;;;;;;;7.28;1.67;;;;;;;;;;8249142;28;20041;-73
2023/01/13 11:34:59;;;;;;;10.88;1.60;;;;;;;;;;8247410;28;20025;-73
2023/01/13 11:39:10;;;;;;;6.45;1.52;;;;;;;;;;8250942;28;20036;-74
2023/01/13 11:43:26;;;;;;;10.18;1.90;;;;;;;;;;8230334;28;20029;-73
2023/01/13 11:47:26;;;;;;;11.25;2.38;;;;;;;;;;8248581;28;20038;-74
2023/01/13 11:51:33;;;;;;;13.48;1.80;;;;;;;;;;8250710;28;20088;-74
2023/01/13 11:55:45;;;;;;;8.65;1.42;;;;;;;;;;8251470;28;20037;-73
2023/01/13 11:59:45;;;;;;;6.22;1.42;;;;;;;;;;8250122;28;20089;-73
2023/01/13 12:03:59;;;;;;;7.85;1.55;;;;;;;;;;8248466;28;20053;-74
2023/01/13 12:08:09;;;;;;;7.38;1.15;;;;;;;;;;8257095;28;20029;-73
2023/01/13 12:12:18;;;;;;;6.03;1.00;;;;;;;;;;8257792;28;20073;-76
2023/01/13 12:16:22;;;;;;;4.38;1.10;;;;;;;;;;8239417;28;20042;-73
2023/01/13 12:20:41;;;;;;;7.47;1.45;;;;;;;;;;8232334;28;20026;-73
2023/01/13 12:24:49;;;;;;;5.05;1.17;;;;;;;;;;8258051;28;20038;-73
2023/01/13 12:28:49;;;;;;;5.03;1.08;;;;;;;;;;8256369;28;20028;-72
2023/01/13 12:32:51;;;;;;;13.13;1.52;;;;;;;;;;8234496;28;20469;-73
2023/01/13 12:36:56;;;;;;;7.60;1.50;;;;;;;;;;8256642;28;20053;-73
2023/01/13 12:41:05;;;;;;;7.97;1.45;;;;;;;;;;8254432;28;20928;-73
2023/01/13 12:45:05;;;;;;;5.82;1.40;;;;;;;;;;8255022;28;20848;-73
2023/01/13 12:49:06;;;;;;;9.07;1.90;;;;;;;;;;8254348;28;20026;-73
2023/01/13 12:53:25;;;;;;;10.00;1.70;;;;;;;;;;8255757;28;20041;-73
2023/01/13 12:57:25;;;;;;;9.73;1.80;;;;;;;;;;8255022;28;20033;-73
2023/01/13 13:01:35;;;;;;;12.80;1.70;;;;;;;;;;8252292;28;20072;-73
2023/01/13 13:05:38;;;;;;;11.35;2.05;;;;;;;;;;8253252;28;20054;-73
2023/01/13 13:10:07;;;;;;;7.72;1.58;;;;;;;;;;8254594;28;20025;-73
2023/01/13 13:14:11;;;;;;;7.50;1.40;;;;;;;;;;8240842;28;20038;-73
2023/01/13 13:18:22;;;;;;;6.63;1.25;;;;;;;;;;8252352;28;20885;-73
2023/01/13 13:22:25;;;;;;;7.38;1.60;;;;;;;;;;8232419;28;20040;-73
2023/01/13 13:26:29;;;;;;;4.97;1.40;;;;;;;;;;8251295;28;20029;-73
2023/01/13 13:30:34;;;;;;;7.85;1.42;;;;;;;;;;8252314;28;20063;-73
2023/01/13 13:34:42;;;;;;;6.22;1.50;;;;;;;;;;8254795;28;20061;-73
2023/01/13 13:47:39;;;;;;;6.65;1.52;;;;;;;;;;8255623;28;20041;-73
2023/01/13 13:51:43;;;;;;;3.60;1.35;;;;;;;;;;8257091;28;20021;-73
2023/01/13 13:55:53;;;;;;;6.35;1.55;;;;;;;;;;8257051;28;20084;-73
2023/01/13 13:59:56;;;;;;;10.23;2.00;;;;;;;;;;8254194;28;20034;-73
2023/01/13 14:04:02;;;;;;;5.70;1.52;;;;;;;;;;8255781;28;20153;-73
2023/01/13 14:08:08;;;;;;;10.95;2.47;;;;;;;;;;8255936;28;20030;-73
2023/01/13 14:12:15;;;;;;;6.05;1.40;;;;;;;;;;8255913;28;20080;-73
2023/01/13 14:16:15;;;;;;;6.32;1.90;;;;;;;;;;8256412;28;20611;-73
2023/01/13 14:20:16;;;;;;;7.22;1.73;;;;;;;;;;8255693;28;20104;-72
2023/01/13 14:24:19;;;;;;;6.68;1.77;;;;;;;;;;8255622;28;20026;-73
2023/01/13 14:28:22;;;;;;;6.45;1.85;;;;;;;;;;8254202;28;20036;-73
2023/01/13 14:32:24;;;;;;;7.25;2.25;;;;;;;;;;8255022;28;20054;-73
2023/01/13 14:36:35;;;;;;;7.95;1.75;;;;;;;;;;8256282;28;20406;-73
2023/01/13 14:40:35;;;;;;;5.95;1.42;;;;;;;;;;8254758;28;20072;-73
2023/01/13 14:44:35;;;;;;;6.15;1.58;;;;;;;;;;8243430;28;20025;-73
2023/01/13 14:48:36;;;;;;;8.40;1.63;;;;;;;;;;8253195;28;20724;-73
2023/01/13 14:52:45;;;;;;;8.27;1.70;;;;;;;;;;8239188;28;20072;-73
2023/01/13 14:56:50;;;;;;;5.85;1.95;;;;;;;;;;8254732;28;20032;-73
2023/01/13 15:00:50;;;;;;;12.55;2.15;;;;;;;;;;8254991;28;20038;-73
2023/01/13 15:04:55;;;;;;;8.45;1.80;;;;;;;;;;8254275;28;20487;-73
2023/01/13 15:08:55;;;;;;;5.43;2.13;;;;;;;;;;8254582;28;20028;-73
2023/01/13 15:12:56;;;;;;;8.23;2.58;;;;;;;;;;8236205;28;20555;-73
2023/01/13 15:16:57;;;;;;;11.02;2.33;;;;;;;;;;8253257;28;20038;-73
2023/01/13 15:20:57;;;;;;;8.48;1.90;;;;;;;;;;8253888;28;20706;-73
2023/01/13 15:24:57;;;;;;;16.17;2.53;;;;;;;;;;8254351;28;20025;-73
2023/01/13 15:28:59;;;;;;;9.25;2.10;;;;;;;;;;8251968;28;20034;-72
2023/01/13 15:32:59;;;;;;;8.35;1.95;;;;;;;;;;8249377;28;20037;-73
2023/01/13 15:36:59;;;;;;;12.80;2.43;;;;;;;;;;8232740;28;20030;-73
2023/01/13 15:41:00;;;;;;;8.18;1.73;;;;;;;;;;8250186;28;20372;-73
2023/01/13 15:49:25;;;;;;;9.57;1.88;;;;;;;;;;8252801;28;20114;-72
2023/01/13 15:53:25;;;;;;;12.30;2.00;;;;;;;;;;8224062;28;20028;-73
2023/01/13 15:57:30;;;;;;;11.52;2.05;;;;;;;;;;8252359;28;20030;-73
2023/01/13 16:01:30;;;;;;;13.68;2.63;;;;;;;;;;8249401;28;20045;-73
2023/01/13 16:05:30;;;;;;;7.65;1.63;;;;;;;;;;8251106;28;20136;-73
2023/01/13 16:09:30;;;;;;;8.65;1.40;;;;;;;;;;8248711;28;20078;-73
2023/01/13 16:13:31;;;;;;;6.07;1.48;;;;;;;;;;8251760;28;20025;-73
2023/01/13 16:17:32;;;;;;;5.65;1.70;;;;;;;;;;8248971;28;20046;-72
2023/01/13 16:21:32;;;;;;;3.83;1.38;;;;;;;;;;8251017;28;20032;-73
2023/01/13 16:25:33;;;;;;;4.90;1.45;;;;;;;;;;8251758;28;20132;-73
2023/01/13 16:29:39;;;;;;;6.07;1.40;;;;;;;;;;8246561;28;20021;-72
2023/01/13 16:33:40;;;;;;;6.95;1.92;;;;;;;;;;8244980;28;20056;-73
2023/01/13 16:37:40;;;;;;;3.40;1.23;;;;;;;;;;8247437;28;21452;-73
2023/01/13 16:41:40;;;;;;;11.57;2.65;;;;;;;;;;8246478;28;20087;-73
2023/01/13 16:45:41;;;;;;;12.10;2.20;;;;;;;;;;8245886;28;20046;-73
2023/01/13 16:49:41;;;;;;;5.73;1.50;;;;;;;;;;8245839;28;20125;-73
2023/01/13 16:53:41;;;;;;;8.13;1.77;;;;;;;;;;8250627;28;21062;-74
2023/01/13 16:57:41;;;;;;;8.95;1.75;;;;;;;;;;8253422;28;20305;-73
2023/01/13 17:01:42;;;;;;;8.50;1.80;;;;;;;;;;8231063;28;20045;-73
2023/01/13 17:05:43;;;;;;;8.88;2.28;;;;;;;;;;8252277;28;20073;-73
2023/01/13 17:09:43;;;;;;;7.13;1.73;;;;;;;;;;8251795;28;20033;-73
2023/01/13 17:13:43;;;;;;;8.48;2.13;;;;;;;;;;8252455;28;20062;-73
2023/01/13 17:17:46;;;;;;;10.25;2.33;;;;;;;;;;8250040;28;20048;-73
2023/01/13 17:21:47;;;;;;;10.98;2.00;;;;;;;;;;8252394;28;20030;-73
2023/01/13 17:25:47;;;;;;;10.97;2.30;;;;;;;;;;8251400;28;20033;-73
2023/01/13 17:29:48;;;;;;;9.02;1.90;;;;;;;;;;8250818;28;20384;-73
2023/01/13 17:33:48;;;;;;;6.07;1.88;;;;;;;;;;8250493;28;20042;-73
2023/01/13 17:37:48;;;;;;;9.32;2.00;;;;;;;;;;8251373;28;20021;-73
2023/01/13 17:41:49;;;;;;;9.43;1.70;;;;;;;;;;8254634;28;20041;-73
2023/01/13 17:45:51;;;;;;;7.47;1.98;;;;;;;;;;8238492;28;20048;-73
2023/01/13 17:49:51;;;;;;;6.90;1.98;;;;;;;;;;8254235;28;20026;-73
2023/01/13 17:53:52;;;;;;;13.88;2.15;;;;;;;;;;8256981;28;20044;-73
2023/01/13 17:57:52;;;;;;;7.47;1.60;;;;;;;;;;8256004;28;20021;-74
2023/01/13 18:01:52;;;;;;;8.55;1.92;;;;;;;;;;8255382;28;20054;-73
2023/01/13 18:05:52;;;;;;;9.82;1.80;;;;;;;;;;8253031;28;20034;-73
2023/01/13 18:09:52;;;;;;;6.28;1.70;;;;;;;;;;8253567;28;20080;-73
2023/01/13 18:13:56;;;;;;;8.40;1.67;;;;;;;;;;8254992;28;20067;-73
2023/01/13 18:17:56;;;;;;;8.18;1.67;;;;;;;;;;8254682;28;20045;-73
2023/01/13 18:30:37;;;;;;;5.32;1.70;;;;;;;;;;8256134;28;20414;-73
2023/01/13 18:34:38;;;;;;;9.57;1.70;;;;;;;;;;8255248;28;20025;-73
2023/01/13 18:38:38;;;;;;;8.80;1.83;;;;;;;;;;8255219;28;20049;-73
2023/01/13 18:42:52;;;;;;;11.02;2.00;;;;;;;;;;8254448;28;20048;-73
2023/01/13 18:46:52;;;;;;;6.20;1.50;;;;;;;;;;8256912;28;21067;-73
2023/01/13 18:50:52;;;;;;;8.02;1.65;;;;;;;;;;8255105;28;20138;-73
2023/01/13 18:54:52;;;;;;;6.32;1.60;;;;;;;;;;8255743;28;20030;-73
2023/01/13 18:58:53;;;;;;;5.90;1.80;;;;;;;;;;8254894;28;20028;-73
2023/01/13 19:02:57;;;;;;;9.50;1.77;;;;;;;;;;8254578;28;20100;-73
2023/01/13 19:06:59;;;;;;;8.25;1.60;;;;;;;;;;8254611;28;20283;-73
2023/01/13 19:11:03;;;;;;;6.43;1.67;;;;;;;;;;8256345;28;20034;-73
2023/01/13 19:15:04;;;;;;;8.65;1.80;;;;;;;;;;8253968;28;20962;-73
2023/01/13 19:19:04;;;;;;;11.02;1.73;;;;;;;;;;8255253;28;20478;-73
2023/01/13 19:23:04;;;;;;;8.05;1.70;;;;;;;;;;8256904;28;20479;-73
2023/01/13 19:27:05;;;;;;;6.60;1.52;;;;;;;;;;8256084;28;20018;-73
2023/01/13 19:31:06;;;;;;;6.20;1.73;;;;;;;;;;8240869;28;20145;-73
2023/01/13 19:35:06;;;;;;;8.88;1.80;;;;;;;;;;8256074;28;20033;-74
2023/01/13 19:39:07;;;;;;;10.80;2.35;;;;;;;;;;8255589;28;20025;-72
2023/01/13 19:47:26;;;;;;;8.23;1.30;;;;;;;;;;8255858;28;20045;-73
2023/01/13 19:51:26;;;;;;;5.88;1.27;;;;;;;;;;8238222;28;20057;-73
2023/01/13 19:55:27;;;;;;;5.50;1.40;;;;;;;;;;8254446;28;20021;-73
2023/01/13 19:59:31;;;;;;;8.80;1.92;;;;;;;;;;8235709;28;20755;-73
2023/01/13 20:03:34;;;;;;;9.30;1.58;;;;;;;;;;8234871;28;20131;-73
2023/01/13 20:07:35;;;;;;;12.00;2.20;;;;;;;;;;8254858;28;20908;-73
2023/01/13 20:11:35;;;;;;;13.60;1.83;;;;;;;;;;8252454;28;20053;-73
2023/01/13 20:15:36;;;;;;;17.60;2.33;;;;;;;;;;8253455;28;20277;-73
2023/01/13 20:19:36;;;;;;;13.88;2.17;;;;;;;;;;8253276;28;20376;-73
2023/01/13 20:23:36;;;;;;;10.25;2.13;;;;;;;;;;8236113;28;20049;-73
2023/01/13 20:27:37;;;;;;;9.73;2.20;;;;;;;;;;8240389;28;20025;-73
2023/01/13 20:31:37;;;;;;;11.70;2.03;;;;;;;;;;8259500;28;20034;-73
2023/01/13 20:35:37;;;;;;;8.32;2.05;;;;;;;;;;8259427;28;20137;-73
2023/01/13 20:39:39;;;;;;;12.85;2.55;;;;;;;;;;8258909;28;20925;-73
2023/01/13 20:43:40;;;;;;;11.07;2.15;;;;;;;;;;8257791;28;20088;-73
2023/01/13 20:47:40;;;;;;;12.05;2.38;;;;;;;;;;8256965;28;20507;-73
2023/01/13 20:51:40;;;;;;;14.65;2.17;;;;;;;;;;8259873;28;20128;-73
2023/01/13 20:55:40;;;;;;;10.98;2.42;;;;;;;;;;8259210;28;20487;-72
2023/01/13 20:59:41;;;;;;;15.35;2.75;;;;;;;;;;8257890;28;20022;-73
2023/01/13 21:03:41;;;;;;;10.63;2.20;;;;;;;;;;8258317;28;20034;-73
2023/01/13 21:07:41;;;;;;;8.10;2.10;;;;;;;;;;8256829;28;20080;-73
2023/01/13 21:16:00;;;;;;;15.60;2.40;;;;;;;;;;8258522;28;20088;-72
2023/01/13 21:20:00;;;;;;;14.52;2.42;;;;;;;;;;8256626;28;20364;-73
2023/01/13 21:24:00;;;;;;;11.13;1.98;;;;;;;;;;8258411;28;20106;-73
2023/01/13 21:28:09;;;;;;;11.18;2.20;;;;;;;;;;8256866;28;20467;-73
2023/01/13 21:32:10;;;;;;;11.63;3.00;;;;;;;;;;8257657;28;20063;-74
2023/01/13 21:36:11;;;;;;;12.30;2.10;;;;;;;;;;8258752;28;20523;-73
2023/01/13 21:40:12;;;;;;;11.82;2.58;;;;;;;;;;8256010;28;20349;-72
2023/01/13 21:48:35;;;;;;;13.52;2.58;;;;;;;;;;8256853;28;20053;-72
2023/01/13 21:52:35;;;;;;;13.73;2.67;;;;;;;;;;8256237;28;20589;-73
2023/01/13 21:56:36;;;;;;;12.95;2.42;;;;;;;;;;8256682;28;20049;-72
2023/01/13 22:00:36;;;;;;;9.32;2.20;;;;;;;;;;8255604;28;20038;-72
2023/01/13 22:04:36;;;;;;;9.90;2.00;;;;;;;;;;8238598;28;20025;-73
2023/01/13 22:08:37;;;;;;;15.25;2.67;;;;;;;;;;8256666;28;20030;-73
2023/01/13 22:12:37;;;;;;;12.05;2.25;;;;;;;;;;8255140;28;20034;-72
2023/01/13 22:16:40;;;;;;;9.07;2.42;;;;;;;;;;8251989;28;20720;-72
2023/01/13 22:20:40;;;;;;;14.70;2.80;;;;;;;;;;8254405;28;20418;-72
2023/01/13 22:24:42;;;;;;;13.80;2.42;;;;;;;;;;8255927;28;20030;-72
2023/01/13 22:28:42;;;;;;;9.15;2.13;;;;;;;;;;8255552;28;20036;-72
2023/01/13 22:32:43;;;;;;;10.60;2.45;;;;;;;;;;8254362;28;20179;-73
2023/01/13 22:36:43;;;;;;;12.02;2.28;;;;;;;;;;8255190;28;20029;-72
2023/01/13 22:40:44;;;;;;;14.40;2.38;;;;;;;;;;8252643;28;20683;-73
2023/01/13 22:44:44;;;;;;;14.13;3.08;;;;;;;;;;8235380;28;20025;-72
2023/01/13 22:48:44;;;;;;;14.65;2.30;;;;;;;;;;8249813;28;20128;-72
2023/01/13 22:52:45;;;;;;;10.93;2.50;;;;;;;;;;8251475;28;20034;-73
2023/01/13 22:56:45;;;;;;;9.77;2.33;;;;;;;;;;8253457;28;20120;-72
2023/01/13 23:00:45;;;;;;;10.32;2.55;;;;;;;;;;8252333;28;20034;-72
2023/01/13 23:04:45;;;;;;;14.88;2.53;;;;;;;;;;8254148;28;20030;-72
2023/01/13 23:08:46;;;;;;;11.65;2.08;;;;;;;;;;8235620;28;20038;-72
2023/01/13 23:12:47;;;;;;;9.07;2.38;;;;;;;;;;8254409;28;20203;-72
2023/01/13 23:16:47;;;;;;;13.05;2.60;;;;;;;;;;8253185;28;20507;-72
2023/01/13 23:20:48;;;;;;;13.30;2.40;;;;;;;;;;8234571;28;20104;-73
2023/01/13 23:24:48;;;;;;;15.52;2.50;;;;;;;;;;8254228;28;20478;-72
2023/01/13 23:28:48;;;;;;;13.20;2.50;;;;;;;;;;8253734;28;20032;-72
2023/01/13 23:32:48;;;;;;;13.38;2.63;;;;;;;;;;8251875;28;20046;-73
2023/01/13 23:36:49;;;;;;;12.27;2.33;;;;;;;;;;8255503;28;20080;-72
2023/01/13 23:40:49;;;;;;;18.60;2.75;;;;;;;;;;8252314;28;20029;-72
2023/01/13 23:44:49;;;;;;;11.07;2.47;;;;;;;;;;8254452;28;20181;-73
2023/01/13 23:48:49;;;;;;;14.50;2.17;;;;;;;;;;8253514;28;20798;-72
2023/01/13 23:52:50;;;;;;;12.13;2.70;;;;;;;;;;8253565;28;20065;-72
2023/01/13 23:56:53;;;;;;;11.45;2.42;;;;;;;;;;8253459;28;20852;-72
